sensor_id;sensor_type;location;lat;lon;timestamp;P1;durP1;ratioP1;P2;durP2;ratioP2
21636;SDS011;10980;49.596;6.142;2022-08-04T00:00:07;6.93;;;2.78;;
21636;SDS011;10980;49.596;6.142;2022-08-04T00:03:47;5.03;;;2.80;;
21636;SDS011;10980;49.596;6.142;2022-08-04T00:11:06;5.40;;;2.83;;
21636;SDS011;10980;49.596;6.142;2022-08-04T00:14:36;4.10;;;3.00;;
21636;SDS011;10980;49.596;6.142;2022-08-04T00:18:04;5.65;;;2.53;;
21636;SDS011;10980;49.596;6.142;2022-08-04T00:21:30;7.18;;;2.63;;
21636;SDS011;10980;49.596;6.142;2022-08-04T00:24:56;7.63;;;2.88;;
21636;SDS011;10980;49.596;6.142;2022-08-04T00:28:24;4.30;;;2.63;;
21636;SDS011;10980;49.596;6.142;2022-08-04T00:31:47;9.00;;;2.65;;
21636;SDS011;10980;49.596;6.142;2022-08-04T00:35:17;6.15;;;2.65;;
21636;SDS011;10980;49.596;6.142;2022-08-04T00:38:42;6.22;;;3.00;;
21636;SDS011;10980;49.596;6.142;2022-08-04T00:45:58;3.75;;;2.58;;
21636;SDS011;10980;49.596;6.142;2022-08-04T01:01:00;6.38;;;2.85;;
21636;SDS011;10980;49.596;6.142;2022-08-04T01:08:40;8.63;;;3.20;;
21636;SDS011;10980;49.596;6.142;2022-08-04T01:23:23;8.55;;;3.00;;
21636;SDS011;10980;49.596;6.142;2022-08-04T01:27:05;5.00;;;2.88;;
21636;SDS011;10980;49.596;6.142;2022-08-04T01:30:31;8.15;;;3.13;;
21636;SDS011;10980;49.596;6.142;2022-08-04T01:33:56;5.22;;;2.92;;
21636;SDS011;10980;49.596;6.142;2022-08-04T01:41:09;8.55;;;3.53;;
21636;SDS011;10980;49.596;6.142;2022-08-04T01:44:34;5.97;;;3.20;;
21636;SDS011;10980;49.596;6.142;2022-08-04T01:47:58;5.82;;;2.95;;
21636;SDS011;10980;49.596;6.142;2022-08-04T01:51:22;6.63;;;2.85;;
21636;SDS011;10980;49.596;6.142;2022-08-04T01:54:45;6.90;;;2.75;;
21636;SDS011;10980;49.596;6.142;2022-08-04T01:58:08;6.63;;;2.95;;
21636;SDS011;10980;49.596;6.142;2022-08-04T02:01:33;6.70;;;2.95;;
21636;SDS011;10980;49.596;6.142;2022-08-04T02:04:59;5.18;;;2.83;;
21636;SDS011;10980;49.596;6.142;2022-08-04T02:08:29;6.53;;;2.92;;
21636;SDS011;10980;49.596;6.142;2022-08-04T02:12:03;5.75;;;2.50;;
21636;SDS011;10980;49.596;6.142;2022-08-04T02:16:00;6.40;;;2.95;;
21636;SDS011;10980;49.596;6.142;2022-08-04T02:19:29;5.45;;;2.63;;
21636;SDS011;10980;49.596;6.142;2022-08-04T02:22:57;5.90;;;2.65;;
21636;SDS011;10980;49.596;6.142;2022-08-04T02:26:21;5.72;;;2.95;;
21636;SDS011;10980;49.596;6.142;2022-08-04T02:29:49;7.45;;;3.25;;
21636;SDS011;10980;49.596;6.142;2022-08-04T02:33:18;8.07;;;2.85;;
21636;SDS011;10980;49.596;6.142;2022-08-04T02:36:43;4.40;;;2.83;;
21636;SDS011;10980;49.596;6.142;2022-08-04T02:40:08;3.90;;;2.30;;
21636;SDS011;10980;49.596;6.142;2022-08-04T02:43:32;4.25;;;2.78;;
21636;SDS011;10980;49.596;6.142;2022-08-04T02:47:13;5.68;;;2.47;;
21636;SDS011;10980;49.596;6.142;2022-08-04T02:50:37;6.05;;;2.67;;
21636;SDS011;10980;49.596;6.142;2022-08-04T02:54:01;6.60;;;2.45;;
21636;SDS011;10980;49.596;6.142;2022-08-04T02:57:26;4.15;;;2.80;;
21636;SDS011;10980;49.596;6.142;2022-08-04T03:00:50;4.88;;;2.63;;
21636;SDS011;10980;49.596;6.142;2022-08-04T03:11:35;5.63;;;2.40;;
21636;SDS011;10980;49.596;6.142;2022-08-04T03:22:58;3.92;;;2.40;;
21636;SDS011;10980;49.596;6.142;2022-08-04T03:30:17;4.50;;;2.80;;
21636;SDS011;10980;49.596;6.142;2022-08-04T03:37:20;6.80;;;2.50;;
21636;SDS011;10980;49.596;6.142;2022-08-04T03:41:03;5.10;;;2.50;;
21636;SDS011;10980;49.596;6.142;2022-08-04T03:52:50;5.63;;;2.55;;
21636;SDS011;10980;49.596;6.142;2022-08-04T04:00:23;3.55;;;2.53;;
21636;SDS011;10980;49.596;6.142;2022-08-04T04:15:35;4.75;;;2.60;;
21636;SDS011;10980;49.596;6.142;2022-08-04T04:19:31;10.25;;;2.67;;
21636;SDS011;10980;49.596;6.142;2022-08-04T04:23:14;6.05;;;2.83;;
21636;SDS011;10980;49.596;6.142;2022-08-04T04:26:51;3.97;;;2.47;;
21636;SDS011;10980;49.596;6.142;2022-08-04T04:41:45;6.75;;;3.17;;
21636;SDS011;10980;49.596;6.142;2022-08-04T04:45:21;4.63;;;2.72;;
21636;SDS011;10980;49.596;6.142;2022-08-04T04:48:53;6.10;;;2.70;;
21636;SDS011;10980;49.596;6.142;2022-08-04T04:52:29;9.80;;;3.10;;
21636;SDS011;10980;49.596;6.142;2022-08-04T05:14:57;4.25;;;3.03;;
21636;SDS011;10980;49.596;6.142;2022-08-04T05:18:23;4.70;;;2.53;;
21636;SDS011;10980;49.596;6.142;2022-08-04T05:28:47;6.93;;;2.78;;
21636;SDS011;10980;49.596;6.142;2022-08-04T05:32:14;6.40;;;3.22;;
21636;SDS011;10980;49.596;6.142;2022-08-04T05:35:45;6.28;;;2.97;;
21636;SDS011;10980;49.596;6.142;2022-08-04T05:39:32;3.70;;;2.55;;
21636;SDS011;10980;49.596;6.142;2022-08-04T05:42:57;13.02;;;3.17;;
21636;SDS011;10980;49.596;6.142;2022-08-04T05:46:20;7.72;;;2.55;;
21636;SDS011;10980;49.596;6.142;2022-08-04T05:49:43;11.10;;;3.00;;
21636;SDS011;10980;49.596;6.142;2022-08-04T05:53:16;8.82;;;3.10;;
21636;SDS011;10980;49.596;6.142;2022-08-04T05:56:39;10.80;;;2.58;;
21636;SDS011;10980;49.596;6.142;2022-08-04T06:00:03;12.18;;;3.42;;
21636;SDS011;10980;49.596;6.142;2022-08-04T06:03:47;10.30;;;3.13;;
21636;SDS011;10980;49.596;6.142;2022-08-04T06:07:10;13.90;;;3.88;;
21636;SDS011;10980;49.596;6.142;2022-08-04T06:10:36;10.75;;;3.13;;
21636;SDS011;10980;49.596;6.142;2022-08-04T06:14:01;7.53;;;2.83;;
21636;SDS011;10980;49.596;6.142;2022-08-04T06:17:31;4.30;;;2.85;;
21636;SDS011;10980;49.596;6.142;2022-08-04T06:21:16;7.63;;;3.03;;
21636;SDS011;10980;49.596;6.142;2022-08-04T06:24:42;7.57;;;3.20;;
21636;SDS011;10980;49.596;6.142;2022-08-04T06:28:08;5.28;;;2.80;;
21636;SDS011;10980;49.596;6.142;2022-08-04T06:31:31;7.95;;;2.55;;
21636;SDS011;10980;49.596;6.142;2022-08-04T06:35:43;4.28;;;2.70;;
21636;SDS011;10980;49.596;6.142;2022-08-04T06:39:06;5.47;;;2.60;;
21636;SDS011;10980;49.596;6.142;2022-08-04T06:42:29;6.07;;;2.75;;
21636;SDS011;10980;49.596;6.142;2022-08-04T06:45:52;6.03;;;2.35;;
21636;SDS011;10980;49.596;6.142;2022-08-04T06:49:16;5.10;;;2.28;;
21636;SDS011;10980;49.596;6.142;2022-08-04T06:52:39;3.75;;;2.40;;
21636;SDS011;10980;49.596;6.142;2022-08-04T06:56:01;8.23;;;2.70;;
21636;SDS011;10980;49.596;6.142;2022-08-04T06:59:24;7.32;;;2.63;;
21636;SDS011;10980;49.596;6.142;2022-08-04T07:02:49;7.53;;;2.92;;
21636;SDS011;10980;49.596;6.142;2022-08-04T07:06:12;7.45;;;2.53;;
21636;SDS011;10980;49.596;6.142;2022-08-04T07:09:35;8.43;;;3.10;;
21636;SDS011;10980;49.596;6.142;2022-08-04T07:12:57;3.92;;;2.25;;
21636;SDS011;10980;49.596;6.142;2022-08-04T07:16:21;8.38;;;2.60;;
21636;SDS011;10980;49.596;6.142;2022-08-04T07:19:51;9.38;;;3.40;;
21636;SDS011;10980;49.596;6.142;2022-08-04T07:23:13;9.80;;;3.20;;
21636;SDS011;10980;49.596;6.142;2022-08-04T07:26:41;6.72;;;2.90;;
21636;SDS011;10980;49.596;6.142;2022-08-04T07:30:06;11.65;;;3.67;;
21636;SDS011;10980;49.596;6.142;2022-08-04T07:33:28;10.75;;;2.88;;
21636;SDS011;10980;49.596;6.142;2022-08-04T07:36:52;9.38;;;2.92;;
21636;SDS011;10980;49.596;6.142;2022-08-04T07:40:16;6.03;;;2.95;;
21636;SDS011;10980;49.596;6.142;2022-08-04T07:43:38;12.57;;;3.35;;
21636;SDS011;10980;49.596;6.142;2022-08-04T07:47:00;7.85;;;2.80;;
21636;SDS011;10980;49.596;6.142;2022-08-04T07:50:25;8.52;;;3.05;;
21636;SDS011;10980;49.596;6.142;2022-08-04T07:53:48;9.73;;;2.97;;
21636;SDS011;10980;49.596;6.142;2022-08-04T07:57:16;4.95;;;2.60;;
21636;SDS011;10980;49.596;6.142;2022-08-04T08:00:59;8.50;;;2.83;;
21636;SDS011;10980;49.596;6.142;2022-08-04T08:04:21;7.75;;;3.08;;
21636;SDS011;10980;49.596;6.142;2022-08-04T08:07:46;12.07;;;2.63;;
21636;SDS011;10980;49.596;6.142;2022-08-04T08:11:15;6.45;;;2.70;;
21636;SDS011;10980;49.596;6.142;2022-08-04T08:14:37;7.22;;;2.67;;
21636;SDS011;10980;49.596;6.142;2022-08-04T08:18:00;5.45;;;2.75;;
21636;SDS011;10980;49.596;6.142;2022-08-04T08:21:22;5.38;;;2.75;;
21636;SDS011;10980;49.596;6.142;2022-08-04T08:24:44;5.55;;;2.47;;
21636;SDS011;10980;49.596;6.142;2022-08-04T08:28:05;4.55;;;2.30;;
21636;SDS011;10980;49.596;6.142;2022-08-04T08:31:28;4.70;;;2.45;;
21636;SDS011;10980;49.596;6.142;2022-08-04T08:35:09;7.55;;;2.67;;
21636;SDS011;10980;49.596;6.142;2022-08-04T08:49:46;5.65;;;2.10;;
21636;SDS011;10980;49.596;6.142;2022-08-04T09:12:13;10.32;;;2.70;;
21636;SDS011;10980;49.596;6.142;2022-08-04T09:16:07;9.52;;;2.33;;
21636;SDS011;10980;49.596;6.142;2022-08-04T09:19:38;5.50;;;1.92;;
21636;SDS011;10980;49.596;6.142;2022-08-04T09:30:21;2.58;;;1.55;;
21636;SDS011;10980;49.596;6.142;2022-08-04T09:33:52;5.72;;;2.30;;
21636;SDS011;10980;49.596;6.142;2022-08-04T09:37:23;6.28;;;1.50;;
21636;SDS011;10980;49.596;6.142;2022-08-04T10:03:37;2.90;;;1.27;;
21636;SDS011;10980;49.596;6.142;2022-08-04T10:10:54;3.38;;;0.88;;
21636;SDS011;10980;49.596;6.142;2022-08-04T10:14:32;2.10;;;1.13;;
21636;SDS011;10980;49.596;6.142;2022-08-04T10:18:07;2.15;;;1.00;;
21636;SDS011;10980;49.596;6.142;2022-08-04T10:33:24;4.93;;;0.90;;
21636;SDS011;10980;49.596;6.142;2022-08-04T10:40:39;3.78;;;1.15;;
21636;SDS011;10980;49.596;6.142;2022-08-04T10:44:16;2.35;;;0.63;;
21636;SDS011;10980;49.596;6.142;2022-08-04T10:48:48;0.95;;;0.82;;
21636;SDS011;10980;49.596;6.142;2022-08-04T10:52:00;3.92;;;0.90;;
21636;SDS011;10980;49.596;6.142;2022-08-04T10:55:58;1.67;;;0.68;;
21636;SDS011;10980;49.596;6.142;2022-08-04T10:59:36;2.08;;;0.77;;
21636;SDS011;10980;49.596;6.142;2022-08-04T11:03:19;2.35;;;0.70;;
21636;SDS011;10980;49.596;6.142;2022-08-04T11:06:58;6.03;;;1.00;;
21636;SDS011;10980;49.596;6.142;2022-08-04T11:10:21;2.85;;;0.80;;
21636;SDS011;10980;49.596;6.142;2022-08-04T11:13:53;3.85;;;0.90;;
21636;SDS011;10980;49.596;6.142;2022-08-04T11:17:45;2.20;;;1.02;;
21636;SDS011;10980;49.596;6.142;2022-08-04T11:21:11;1.27;;;0.68;;
21636;SDS011;10980;49.596;6.142;2022-08-04T11:25:06;2.28;;;0.98;;
21636;SDS011;10980;49.596;6.142;2022-08-04T11:28:40;2.47;;;0.88;;
21636;SDS011;10980;49.596;6.142;2022-08-04T11:33:08;6.28;;;1.02;;
21636;SDS011;10980;49.596;6.142;2022-08-04T11:40:15;5.10;;;0.93;;
21636;SDS011;10980;49.596;6.142;2022-08-04T11:47:32;5.57;;;1.00;;
21636;SDS011;10980;49.596;6.142;2022-08-04T11:51:13;5.75;;;1.05;;
21636;SDS011;10980;49.596;6.142;2022-08-04T11:54:36;2.08;;;1.00;;
21636;SDS011;10980;49.596;6.142;2022-08-04T11:57:59;0.95;;;0.80;;
21636;SDS011;10980;49.596;6.142;2022-08-04T12:16:02;7.50;;;1.05;;
21636;SDS011;10980;49.596;6.142;2022-08-04T12:19:52;2.10;;;0.82;;
21636;SDS011;10980;49.596;6.142;2022-08-04T12:23:38;2.22;;;0.90;;
21636;SDS011;10980;49.596;6.142;2022-08-04T12:27:03;4.38;;;1.10;;
21636;SDS011;10980;49.596;6.142;2022-08-04T12:30:59;5.00;;;0.90;;
21636;SDS011;10980;49.596;6.142;2022-08-04T12:34:39;5.05;;;0.90;;
21636;SDS011;10980;49.596;6.142;2022-08-04T12:38:07;3.65;;;1.17;;
21636;SDS011;10980;49.596;6.142;2022-08-04T12:42:10;3.67;;;1.05;;
21636;SDS011;10980;49.596;6.142;2022-08-04T12:45:28;11.48;;;1.52;;
21636;SDS011;10980;49.596;6.142;2022-08-04T12:48:51;5.38;;;1.10;;
21636;SDS011;10980;49.596;6.142;2022-08-04T12:52:19;2.10;;;1.08;;
21636;SDS011;10980;49.596;6.142;2022-08-04T12:55:54;4.22;;;1.20;;
21636;SDS011;10980;49.596;6.142;2022-08-04T12:59:22;2.58;;;1.00;;
21636;SDS011;10980;49.596;6.142;2022-08-04T13:02:44;6.43;;;0.98;;
21636;SDS011;10980;49.596;6.142;2022-08-04T13:06:09;3.30;;;0.80;;
21636;SDS011;10980;49.596;6.142;2022-08-04T13:09:32;4.18;;;1.02;;
21636;SDS011;10980;49.596;6.142;2022-08-04T13:12:58;1.85;;;1.00;;
21636;SDS011;10980;49.596;6.142;2022-08-04T13:16:30;5.82;;;1.08;;
21636;SDS011;10980;49.596;6.142;2022-08-04T13:19:53;6.32;;;0.73;;
21636;SDS011;10980;49.596;6.142;2022-08-04T13:23:17;6.22;;;1.10;;
21636;SDS011;10980;49.596;6.142;2022-08-04T13:27:25;2.47;;;0.80;;
21636;SDS011;10980;49.596;6.142;2022-08-04T13:30:36;3.53;;;0.80;;
21636;SDS011;10980;49.596;6.142;2022-08-04T13:34:04;11.82;;;1.83;;
21636;SDS011;10980;49.596;6.142;2022-08-04T13:37:39;1.85;;;0.88;;
21636;SDS011;10980;49.596;6.142;2022-08-04T13:41:03;3.15;;;0.90;;
21636;SDS011;10980;49.596;6.142;2022-08-04T13:44:30;4.93;;;1.10;;
21636;SDS011;10980;49.596;6.142;2022-08-04T13:47:56;6.05;;;0.80;;
21636;SDS011;10980;49.596;6.142;2022-08-04T13:51:35;9.75;;;1.15;;
21636;SDS011;10980;49.596;6.142;2022-08-04T13:58:43;5.30;;;1.10;;
21636;SDS011;10980;49.596;6.142;2022-08-04T14:02:08;5.97;;;1.02;;
21636;SDS011;10980;49.596;6.142;2022-08-04T14:05:43;4.47;;;0.98;;
21636;SDS011;10980;49.596;6.142;2022-08-04T14:09:21;9.95;;;1.02;;
21636;SDS011;10980;49.596;6.142;2022-08-04T14:12:56;5.50;;;0.90;;
21636;SDS011;10980;49.596;6.142;2022-08-04T14:16:19;4.90;;;0.80;;
21636;SDS011;10980;49.596;6.142;2022-08-04T14:19:57;5.68;;;1.00;;
21636;SDS011;10980;49.596;6.142;2022-08-04T14:23:21;1.85;;;0.95;;
21636;SDS011;10980;49.596;6.142;2022-08-04T14:26:52;5.18;;;1.38;;
21636;SDS011;10980;49.596;6.142;2022-08-04T14:33:42;3.42;;;0.95;;
21636;SDS011;10980;49.596;6.142;2022-08-04T14:37:26;2.20;;;1.13;;
21636;SDS011;10980;49.596;6.142;2022-08-04T14:41:12;12.70;;;1.45;;
21636;SDS011;10980;49.596;6.142;2022-08-04T14:48:29;1.00;;;0.90;;
21636;SDS011;10980;49.596;6.142;2022-08-04T14:55:22;3.47;;;1.17;;
21636;SDS011;10980;49.596;6.142;2022-08-04T14:58:45;3.00;;;1.15;;
21636;SDS011;10980;49.596;6.142;2022-08-04T15:02:18;8.38;;;1.50;;
21636;SDS011;10980;49.596;6.142;2022-08-04T15:05:42;1.42;;;0.95;;
21636;SDS011;10980;49.596;6.142;2022-08-04T15:09:24;4.75;;;1.00;;
21636;SDS011;10980;49.596;6.142;2022-08-04T15:12:46;25.08;;;2.70;;
21636;SDS011;10980;49.596;6.142;2022-08-04T15:16:09;2.67;;;1.20;;
21636;SDS011;10980;49.596;6.142;2022-08-04T15:19:31;8.38;;;1.40;;
21636;SDS011;10980;49.596;6.142;2022-08-04T15:22:54;4.70;;;1.20;;
21636;SDS011;10980;49.596;6.142;2022-08-04T15:26:27;5.20;;;1.30;;
21636;SDS011;10980;49.596;6.142;2022-08-04T15:29:54;69.65;;;5.03;;
21636;SDS011;10980;49.596;6.142;2022-08-04T15:33:22;3.58;;;1.63;;
21636;SDS011;10980;49.596;6.142;2022-08-04T15:36:55;5.63;;;1.27;;
21636;SDS011;10980;49.596;6.142;2022-08-04T15:40:19;9.70;;;2.03;;
21636;SDS011;10980;49.596;6.142;2022-08-04T15:51:24;4.25;;;1.73;;
21636;SDS011;10980;49.596;6.142;2022-08-04T15:58:57;3.55;;;1.25;;
21636;SDS011;10980;49.596;6.142;2022-08-04T16:09:33;2.70;;;1.20;;
21636;SDS011;10980;49.596;6.142;2022-08-04T16:13:07;5.18;;;1.63;;
21636;SDS011;10980;49.596;6.142;2022-08-04T16:20:00;3.65;;;1.20;;
21636;SDS011;10980;49.596;6.142;2022-08-04T16:27:14;4.32;;;1.30;;
21636;SDS011;10980;49.596;6.142;2022-08-04T16:31:03;1.42;;;1.15;;
21636;SDS011;10980;49.596;6.142;2022-08-04T16:34:26;3.03;;;1.45;;
21636;SDS011;10980;49.596;6.142;2022-08-04T16:38:12;4.15;;;1.02;;
21636;SDS011;10980;49.596;6.142;2022-08-04T16:41:41;3.30;;;1.25;;
21636;SDS011;10980;49.596;6.142;2022-08-04T16:48:32;6.38;;;1.30;;
21636;SDS011;10980;49.596;6.142;2022-08-04T16:52:02;16.10;;;1.40;;
21636;SDS011;10980;49.596;6.142;2022-08-04T16:55:29;4.93;;;1.10;;
21636;SDS011;10980;49.596;6.142;2022-08-04T16:58:52;5.55;;;1.20;;
21636;SDS011;10980;49.596;6.142;2022-08-04T17:02:14;4.13;;;1.20;;
21636;SDS011;10980;49.596;6.142;2022-08-04T17:05:45;3.58;;;1.30;;
21636;SDS011;10980;49.596;6.142;2022-08-04T17:09:11;2.30;;;1.17;;
21636;SDS011;10980;49.596;6.142;2022-08-04T17:12:34;7.80;;;1.52;;
21636;SDS011;10980;49.596;6.142;2022-08-04T17:15:57;10.57;;;1.65;;
21636;SDS011;10980;49.596;6.142;2022-08-04T17:19:21;6.10;;;1.30;;
21636;SDS011;10980;49.596;6.142;2022-08-04T17:22:46;4.13;;;1.17;;
21636;SDS011;10980;49.596;6.142;2022-08-04T17:29:33;5.68;;;1.50;;
21636;SDS011;10980;49.596;6.142;2022-08-04T17:33:05;2.63;;;1.50;;
21636;SDS011;10980;49.596;6.142;2022-08-04T17:36:35;5.95;;;1.45;;
21636;SDS011;10980;49.596;6.142;2022-08-04T17:40:09;6.18;;;1.40;;
21636;SDS011;10980;49.596;6.142;2022-08-04T17:43:34;3.10;;;1.30;;
21636;SDS011;10980;49.596;6.142;2022-08-04T17:47:26;2.55;;;1.08;;
21636;SDS011;10980;49.596;6.142;2022-08-04T17:51:14;3.65;;;1.33;;
21636;SDS011;10980;49.596;6.142;2022-08-04T17:54:38;5.40;;;1.67;;
21636;SDS011;10980;49.596;6.142;2022-08-04T17:58:20;7.57;;;1.42;;
21636;SDS011;10980;49.596;6.142;2022-08-04T18:05:24;8.10;;;1.98;;
21636;SDS011;10980;49.596;6.142;2022-08-04T18:09:07;2.28;;;1.48;;
21636;SDS011;10980;49.596;6.142;2022-08-04T18:12:49;4.68;;;1.55;;
21636;SDS011;10980;49.596;6.142;2022-08-04T18:16:13;3.28;;;1.50;;
21636;SDS011;10980;49.596;6.142;2022-08-04T18:19:49;5.03;;;1.40;;
21636;SDS011;10980;49.596;6.142;2022-08-04T18:23:15;2.55;;;1.55;;
21636;SDS011;10980;49.596;6.142;2022-08-04T18:26:38;3.85;;;1.80;;
21636;SDS011;10980;49.596;6.142;2022-08-04T18:30:01;13.70;;;3.15;;
21636;SDS011;10980;49.596;6.142;2022-08-04T18:33:43;7.55;;;1.98;;
21636;SDS011;10980;49.596;6.142;2022-08-04T18:37:19;9.30;;;2.45;;
21636;SDS011;10980;49.596;6.142;2022-08-04T18:41:01;4.70;;;2.05;;
21636;SDS011;10980;49.596;6.142;2022-08-04T18:44:29;2.90;;;1.95;;
21636;SDS011;10980;49.596;6.142;2022-08-04T18:47:52;7.25;;;2.35;;
21636;SDS011;10980;49.596;6.142;2022-08-04T18:51:19;4.13;;;2.50;;
21636;SDS011;10980;49.596;6.142;2022-08-04T18:54:43;4.85;;;2.13;;
21636;SDS011;10980;49.596;6.142;2022-08-04T18:58:05;8.32;;;2.30;;
21636;SDS011;10980;49.596;6.142;2022-08-04T19:01:34;3.72;;;1.75;;
21636;SDS011;10980;49.596;6.142;2022-08-04T19:05:17;7.97;;;2.00;;
21636;SDS011;10980;49.596;6.142;2022-08-04T19:08:39;3.35;;;1.90;;
21636;SDS011;10980;49.596;6.142;2022-08-04T19:12:05;3.17;;;1.65;;
21636;SDS011;10980;49.596;6.142;2022-08-04T19:15:27;4.00;;;1.40;;
21636;SDS011;10980;49.596;6.142;2022-08-04T19:18:55;2.90;;;1.55;;
21636;SDS011;10980;49.596;6.142;2022-08-04T19:22:17;3.08;;;1.58;;
21636;SDS011;10980;49.596;6.142;2022-08-04T19:25:56;11.20;;;2.03;;
21636;SDS011;10980;49.596;6.142;2022-08-04T19:29:30;13.40;;;2.42;;
21636;SDS011;10980;49.596;6.142;2022-08-04T19:33:01;7.95;;;2.00;;
21636;SDS011;10980;49.596;6.142;2022-08-04T19:36:27;10.30;;;2.40;;
21636;SDS011;10980;49.596;6.142;2022-08-04T19:39:51;4.07;;;1.63;;
21636;SDS011;10980;49.596;6.142;2022-08-04T19:43:14;2.40;;;1.45;;
21636;SDS011;10980;49.596;6.142;2022-08-04T19:46:36;2.70;;;1.40;;
21636;SDS011;10980;49.596;6.142;2022-08-04T19:49:58;11.13;;;1.60;;
21636;SDS011;10980;49.596;6.142;2022-08-04T19:53:25;3.33;;;1.40;;
21636;SDS011;10980;49.596;6.142;2022-08-04T19:56:58;8.50;;;2.05;;
21636;SDS011;10980;49.596;6.142;2022-08-04T20:00:20;4.30;;;1.83;;
21636;SDS011;10980;49.596;6.142;2022-08-04T20:03:54;6.45;;;2.13;;
21636;SDS011;10980;49.596;6.142;2022-08-04T20:07:32;8.07;;;1.60;;
21636;SDS011;10980;49.596;6.142;2022-08-04T20:10:54;6.43;;;1.60;;
21636;SDS011;10980;49.596;6.142;2022-08-04T20:14:19;7.35;;;2.25;;
21636;SDS011;10980;49.596;6.142;2022-08-04T20:17:52;7.93;;;1.85;;
21636;SDS011;10980;49.596;6.142;2022-08-04T20:21:33;7.25;;;2.00;;
21636;SDS011;10980;49.596;6.142;2022-08-04T20:25:14;3.03;;;1.60;;
21636;SDS011;10980;49.596;6.142;2022-08-04T20:28:56;10.07;;;1.52;;
21636;SDS011;10980;49.596;6.142;2022-08-04T20:32:20;8.07;;;1.80;;
21636;SDS011;10980;49.596;6.142;2022-08-04T20:35:43;8.85;;;2.33;;
21636;SDS011;10980;49.596;6.142;2022-08-04T20:39:23;6.63;;;2.00;;
21636;SDS011;10980;49.596;6.142;2022-08-04T20:42:46;7.10;;;2.58;;
21636;SDS011;10980;49.596;6.142;2022-08-04T20:46:10;5.75;;;2.13;;
21636;SDS011;10980;49.596;6.142;2022-08-04T20:49:49;12.38;;;2.65;;
21636;SDS011;10980;49.596;6.142;2022-08-04T20:53:13;5.03;;;1.90;;
21636;SDS011;10980;49.596;6.142;2022-08-04T20:56:37;9.32;;;2.88;;
21636;SDS011;10980;49.596;6.142;2022-08-04T21:00:11;12.10;;;2.55;;
21636;SDS011;10980;49.596;6.142;2022-08-04T21:03:33;7.80;;;2.78;;
21636;SDS011;10980;49.596;6.142;2022-08-04T21:07:21;10.35;;;2.83;;
21636;SDS011;10980;49.596;6.142;2022-08-04T21:10:45;12.55;;;2.47;;
21636;SDS011;10980;49.596;6.142;2022-08-04T21:14:08;8.95;;;2.70;;
21636;SDS011;10980;49.596;6.142;2022-08-04T21:17:33;11.48;;;2.40;;
21636;SDS011;10980;49.596;6.142;2022-08-04T21:21:16;12.95;;;3.70;;
21636;SDS011;10980;49.596;6.142;2022-08-04T21:24:38;13.00;;;3.63;;
21636;SDS011;10980;49.596;6.142;2022-08-04T21:28:00;11.65;;;3.00;;
21636;SDS011;10980;49.596;6.142;2022-08-04T21:31:24;8.65;;;3.42;;
21636;SDS011;10980;49.596;6.142;2022-08-04T21:34:48;29.00;;;6.22;;
21636;SDS011;10980;49.596;6.142;2022-08-04T21:38:14;12.20;;;5.47;;
21636;SDS011;10980;49.596;6.142;2022-08-04T21:41:38;15.23;;;4.70;;
21636;SDS011;10980;49.596;6.142;2022-08-04T21:45:20;12.82;;;5.40;;
21636;SDS011;10980;49.596;6.142;2022-08-04T21:48:42;17.60;;;5.63;;
21636;SDS011;10980;49.596;6.142;2022-08-04T21:52:08;15.10;;;5.82;;
21636;SDS011;10980;49.596;6.142;2022-08-04T21:55:30;18.25;;;7.38;;
21636;SDS011;10980;49.596;6.142;2022-08-04T21:59:12;16.85;;;6.10;;
21636;SDS011;10980;49.596;6.142;2022-08-04T22:02:35;15.23;;;6.45;;
21636;SDS011;10980;49.596;6.142;2022-08-04T22:05:57;15.38;;;5.55;;
21636;SDS011;10980;49.596;6.142;2022-08-04T22:09:19;11.25;;;5.18;;
21636;SDS011;10980;49.596;6.142;2022-08-04T22:12:42;15.93;;;6.57;;
21636;SDS011;10980;49.596;6.142;2022-08-04T22:16:12;11.88;;;4.88;;
21636;SDS011;10980;49.596;6.142;2022-08-04T22:19:34;11.43;;;5.05;;
21636;SDS011;10980;49.596;6.142;2022-08-04T22:23:16;12.40;;;5.57;;
21636;SDS011;10980;49.596;6.142;2022-08-04T22:26:44;17.92;;;6.97;;
21636;SDS011;10980;49.596;6.142;2022-08-04T22:30:08;16.48;;;6.88;;
21636;SDS011;10980;49.596;6.142;2022-08-04T22:33:38;13.95;;;6.53;;
21636;SDS011;10980;49.596;6.142;2022-08-04T22:37:16;13.90;;;5.28;;
21636;SDS011;10980;49.596;6.142;2022-08-04T22:40:41;11.57;;;5.95;;
21636;SDS011;10980;49.596;6.142;2022-08-04T22:44:07;17.33;;;6.15;;
21636;SDS011;10980;49.596;6.142;2022-08-04T22:47:35;9.65;;;5.20;;
21636;SDS011;10980;49.596;6.142;2022-08-04T22:50:58;11.63;;;5.75;;
21636;SDS011;10980;49.596;6.142;2022-08-04T22:54:22;15.35;;;6.68;;
21636;SDS011;10980;49.596;6.142;2022-08-04T22:57:50;12.88;;;6.70;;
21636;SDS011;10980;49.596;6.142;2022-08-04T23:01:29;15.13;;;7.80;;
21636;SDS011;10980;49.596;6.142;2022-08-04T23:05:11;21.77;;;8.02;;
21636;SDS011;10980;49.596;6.142;2022-08-04T23:08:36;19.25;;;7.88;;
21636;SDS011;10980;49.596;6.142;2022-08-04T23:11:58;16.67;;;7.30;;
21636;SDS011;10980;49.596;6.142;2022-08-04T23:15:40;16.33;;;7.93;;
21636;SDS011;10980;49.596;6.142;2022-08-04T23:19:02;16.10;;;8.25;;
21636;SDS011;10980;49.596;6.142;2022-08-04T23:22:32;13.25;;;7.75;;
21636;SDS011;10980;49.596;6.142;2022-08-04T23:26:09;14.07;;;7.75;;
21636;SDS011;10980;49.596;6.142;2022-08-04T23:29:32;16.17;;;7.93;;
21636;SDS011;10980;49.596;6.142;2022-08-04T23:33:14;22.77;;;8.57;;
21636;SDS011;10980;49.596;6.142;2022-08-04T23:36:36;19.40;;;8.05;;
21636;SDS011;10980;49.596;6.142;2022-08-04T23:39:58;15.48;;;8.32;;
21636;SDS011;10980;49.596;6.142;2022-08-04T23:43:40;15.38;;;8.50;;
21636;SDS011;10980;49.596;6.142;2022-08-04T23:47:16;15.68;;;8.25;;
21636;SDS011;10980;49.596;6.142;2022-08-04T23:51:05;18.88;;;9.15;;
21636;SDS011;10980;49.596;6.142;2022-08-04T23:54:35;14.82;;;8.63;;
21636;SDS011;10980;49.596;6.142;2022-08-04T23:58:01;17.13;;;8.15;;
